Time;durP1;ratioP1;P1;durP2;ratioP2;P2;SDS_P1;SDS_P2;PMS_P1;PMS_P2;Temp;Humidity;BMP_temperature;BMP_pressure;BME280_temperature;BME280_humidity;BME280_pressure;Samples;Min_cycle;Max_cycle;Signal;HPM_P1;HPM_P2
2024/01/17 00:00:29;;;;;;;12.52;5.22;;;;;;;;;;4971097;28;20030;-74
2024/01/17 00:02:54;;;;;;;13.70;5.78;;;;;;;;;;5009797;28;20062;-75
2024/01/17 00:05:20;;;;;;;11.23;4.75;;;;;;;;;;5034946;28;20026;-75
2024/01/17 00:07:48;;;;;;;13.88;5.57;;;;;;;;;;5039004;28;20141;-74
2024/01/17 00:10:14;;;;;;;11.82;4.13;;;;;;;;;;5026265;28;20077;-75
2024/01/17 00:12:40;;;;;;;11.10;4.60;;;;;;;;;;5007876;28;20037;-74
2024/01/17 00:15:07;;;;;;;11.90;5.47;;;;;;;;;;5017593;28;20033;-75
2024/01/17 00:17:32;;;;;;;6.38;3.40;;;;;;;;;;5013116;28;20053;-75
2024/01/17 00:19:58;;;;;;;10.65;4.10;;;;;;;;;;5030846;28;20049;-75
2024/01/17 00:22:23;;;;;;;10.45;3.95;;;;;;;;;;5003974;28;20053;-75
2024/01/17 00:24:51;;;;;;;5.30;2.47;;;;;;;;;;5012072;28;20033;-75
2024/01/17 00:27:18;;;;;;;4.60;2.70;;;;;;;;;;5010887;28;20042;-75
2024/01/17 00:29:44;;;;;;;7.45;3.47;;;;;;;;;;4995347;28;20036;-75
2024/01/17 00:32:09;;;;;;;2.08;1.65;;;;;;;;;;5011733;28;20042;-75
2024/01/17 00:34:35;;;;;;;5.05;2.85;;;;;;;;;;5013286;28;20033;-75
2024/01/17 00:37:00;;;;;;;4.95;1.50;;;;;;;;;;5003872;28;20645;-75
2024/01/17 00:39:26;;;;;;;12.40;4.00;;;;;;;;;;5019540;28;20101;-75
2024/01/17 00:41:51;;;;;;;8.95;3.35;;;;;;;;;;5013499;28;20057;-75
2024/01/17 00:44:18;;;;;;;13.35;4.35;;;;;;;;;;5013126;28;20430;-75
2024/01/17 00:46:44;;;;;;;5.20;2.65;;;;;;;;;;5030862;28;20426;-75
2024/01/17 00:49:11;;;;;;;5.57;2.83;;;;;;;;;;5012671;28;20258;-75
2024/01/17 00:51:36;;;;;;;6.10;2.60;;;;;;;;;;5031107;28;20091;-75
2024/01/17 00:54:01;;;;;;;12.45;4.75;;;;;;;;;;5012850;28;20025;-75
2024/01/17 00:56:27;;;;;;;11.43;3.80;;;;;;;;;;5013062;28;20044;-75
2024/01/17 00:58:52;;;;;;;10.25;4.72;;;;;;;;;;5030265;28;20060;-75
2024/01/17 01:01:18;;;;;;;14.23;4.72;;;;;;;;;;5030297;28;20041;-75
2024/01/17 01:03:45;;;;;;;11.93;4.70;;;;;;;;;;5020242;28;20038;-75
2024/01/17 01:06:10;;;;;;;14.48;4.85;;;;;;;;;;5010927;28;20057;-75
2024/01/17 01:08:36;;;;;;;11.43;4.85;;;;;;;;;;4993343;28;20026;-75
2024/01/17 01:11:01;;;;;;;11.68;4.95;;;;;;;;;;5010137;28;20587;-75
2024/01/17 01:13:26;;;;;;;11.30;4.00;;;;;;;;;;4993099;28;20232;-76
2024/01/17 01:15:52;;;;;;;8.77;4.40;;;;;;;;;;4993057;28;20045;-75
2024/01/17 01:18:17;;;;;;;12.50;5.38;;;;;;;;;;5010560;28;20049;-75
2024/01/17 01:20:43;;;;;;;16.00;5.15;;;;;;;;;;4993983;28;20023;-75
2024/01/17 01:23:08;;;;;;;15.77;5.95;;;;;;;;;;4992485;28;20050;-75
2024/01/17 01:25:33;;;;;;;16.48;6.32;;;;;;;;;;5009411;28;20124;-76
2024/01/17 01:27:59;;;;;;;25.70;7.47;;;;;;;;;;5023270;28;20049;-74
2024/01/17 01:30:25;;;;;;;19.58;7.18;;;;;;;;;;5006460;28;20054;-75
2024/01/17 01:32:58;;;;;;;24.98;7.70;;;;;;;;;;4992384;28;20041;-75
2024/01/17 01:35:24;;;;;;;17.05;6.35;;;;;;;;;;5010027;28;20037;-74
2024/01/17 01:37:50;;;;;;;13.82;5.97;;;;;;;;;;5018159;28;20122;-75
2024/01/17 01:40:16;;;;;;;17.48;7.10;;;;;;;;;;5010678;28;20062;-75
2024/01/17 01:42:43;;;;;;;16.15;5.85;;;;;;;;;;4993105;28;20053;-75
2024/01/17 01:45:09;;;;;;;17.65;5.55;;;;;;;;;;4992549;28;20029;-75
2024/01/17 01:47:35;;;;;;;13.05;5.72;;;;;;;;;;5011149;28;20038;-75
2024/01/17 01:50:01;;;;;;;15.38;5.38;;;;;;;;;;5011021;28;20042;-75
2024/01/17 01:52:27;;;;;;;12.02;4.72;;;;;;;;;;5010930;28;20125;-75
2024/01/17 01:54:54;;;;;;;14.25;6.03;;;;;;;;;;4996187;28;20045;-75
2024/01/17 01:57:21;;;;;;;15.45;5.80;;;;;;;;;;5001604;28;20121;-75
2024/01/17 01:59:47;;;;;;;15.15;5.80;;;;;;;;;;4997288;28;20128;-75
2024/01/17 02:02:13;;;;;;;11.73;4.97;;;;;;;;;;4990007;28;20097;-75
2024/01/17 02:04:39;;;;;;;14.07;5.50;;;;;;;;;;5022876;28;20041;-75
2024/01/17 02:07:07;;;;;;;11.50;4.80;;;;;;;;;;5027481;28;20041;-75
2024/01/17 02:09:33;;;;;;;11.05;4.70;;;;;;;;;;5015255;28;20057;-75
2024/01/17 02:11:59;;;;;;;9.38;5.15;;;;;;;;;;5008054;28;20029;-75
2024/01/17 02:14:24;;;;;;;10.02;4.78;;;;;;;;;;5010160;28;20600;-75
2024/01/17 02:16:50;;;;;;;13.27;4.97;;;;;;;;;;5010016;28;20494;-75
2024/01/17 02:19:17;;;;;;;12.50;5.78;;;;;;;;;;5008321;28;20570;-75
2024/01/17 02:21:42;;;;;;;11.40;5.00;;;;;;;;;;5009485;28;20042;-75
2024/01/17 02:24:18;;;;;;;16.42;5.38;;;;;;;;;;5009139;28;20088;-75
2024/01/17 02:26:43;;;;;;;10.90;4.43;;;;;;;;;;5010161;28;20076;-75
2024/01/17 02:29:10;;;;;;;11.63;5.43;;;;;;;;;;5007657;28;20046;-75
2024/01/17 02:31:36;;;;;;;11.90;4.28;;;;;;;;;;5009224;28;20065;-75
2024/01/17 02:34:01;;;;;;;12.90;4.18;;;;;;;;;;5009153;28;20087;-75
2024/01/17 02:36:27;;;;;;;10.02;3.83;;;;;;;;;;5009130;28;20591;-75
2024/01/17 02:38:52;;;;;;;10.25;4.40;;;;;;;;;;5025489;28;20365;-75
2024/01/17 02:41:17;;;;;;;8.27;4.07;;;;;;;;;;5028843;28;20025;-75
2024/01/17 02:43:43;;;;;;;17.73;5.07;;;;;;;;;;5027402;28;20033;-75
2024/01/17 02:46:08;;;;;;;11.55;5.40;;;;;;;;;;5028741;28;20128;-75
2024/01/17 02:48:34;;;;;;;10.57;4.55;;;;;;;;;;5028532;28;20116;-75
2024/01/17 02:50:59;;;;;;;13.10;4.72;;;;;;;;;;5027197;28;20032;-75
2024/01/17 02:53:24;;;;;;;11.55;4.93;;;;;;;;;;5027445;28;20115;-75
2024/01/17 02:55:50;;;;;;;9.50;4.93;;;;;;;;;;5028283;28;20039;-75
2024/01/17 02:58:16;;;;;;;13.05;5.70;;;;;;;;;;5028607;28;20073;-75
2024/01/17 03:00:42;;;;;;;9.05;4.53;;;;;;;;;;5028777;28;20068;-75
2024/01/17 03:03:09;;;;;;;8.40;3.85;;;;;;;;;;5026801;28;20045;-75
2024/01/17 03:05:37;;;;;;;10.00;4.60;;;;;;;;;;5028997;28;20026;-74
2024/01/17 03:08:05;;;;;;;12.35;5.30;;;;;;;;;;5030795;28;20037;-75
2024/01/17 03:10:31;;;;;;;9.13;4.18;;;;;;;;;;5034961;28;20101;-75
2024/01/17 03:12:57;;;;;;;8.00;4.05;;;;;;;;;;5030648;28;20469;-75
2024/01/17 03:15:23;;;;;;;13.55;4.63;;;;;;;;;;5042378;28;20533;-75
2024/01/17 03:17:52;;;;;;;11.50;4.80;;;;;;;;;;5048641;28;20152;-75
2024/01/17 03:20:17;;;;;;;13.27;4.57;;;;;;;;;;5045175;28;20080;-75
2024/01/17 03:22:44;;;;;;;12.82;6.25;;;;;;;;;;5049422;28;20045;-75
2024/01/17 03:25:10;;;;;;;12.07;5.13;;;;;;;;;;5042005;28;20065;-75
2024/01/17 03:27:36;;;;;;;10.73;4.45;;;;;;;;;;5044443;28;20044;-75
2024/01/17 03:30:03;;;;;;;11.23;4.57;;;;;;;;;;5040446;28;20033;-76
2024/01/17 03:32:29;;;;;;;12.43;4.72;;;;;;;;;;5027970;28;20033;-75
2024/01/17 03:34:55;;;;;;;11.73;4.40;;;;;;;;;;5029035;28;20044;-76
2024/01/17 03:37:22;;;;;;;11.20;4.88;;;;;;;;;;5022310;28;20038;-75
2024/01/17 03:39:47;;;;;;;13.20;5.00;;;;;;;;;;5008427;28;20038;-75
2024/01/17 03:42:16;;;;;;;16.13;4.80;;;;;;;;;;5007513;28;20111;-75
2024/01/17 03:44:45;;;;;;;11.50;4.47;;;;;;;;;;5008698;28;20511;-75
2024/01/17 03:47:11;;;;;;;7.95;3.97;;;;;;;;;;5006803;28;20573;-75
2024/01/17 03:49:37;;;;;;;9.20;4.80;;;;;;;;;;5008697;28;20169;-75
2024/01/17 03:52:04;;;;;;;11.43;4.68;;;;;;;;;;5010630;28;20070;-75
2024/01/17 03:54:30;;;;;;;9.48;3.70;;;;;;;;;;5011849;28;20038;-75
2024/01/17 03:56:55;;;;;;;11.73;4.15;;;;;;;;;;5010818;28;20069;-75
2024/01/17 03:59:20;;;;;;;11.20;4.43;;;;;;;;;;5011154;28;20026;-75
2024/01/17 04:01:46;;;;;;;8.05;4.20;;;;;;;;;;5012270;28;20109;-75
2024/01/17 04:04:12;;;;;;;8.00;3.78;;;;;;;;;;5011530;28;20046;-75
2024/01/17 04:06:37;;;;;;;17.17;4.75;;;;;;;;;;5011515;28;20046;-75
2024/01/17 04:09:03;;;;;;;10.02;3.90;;;;;;;;;;5003293;28;20032;-75
2024/01/17 04:11:28;;;;;;;10.50;4.00;;;;;;;;;;5032193;28;20688;-75
2024/01/17 04:13:54;;;;;;;8.40;3.97;;;;;;;;;;5013794;28;20037;-75
2024/01/17 04:16:19;;;;;;;11.75;3.75;;;;;;;;;;5014436;28;20112;-75
2024/01/17 04:18:45;;;;;;;11.35;4.28;;;;;;;;;;5030773;28;20041;-75
2024/01/17 04:21:19;;;;;;;8.45;4.10;;;;;;;;;;5031698;28;20041;-75
2024/01/17 04:23:46;;;;;;;12.45;4.22;;;;;;;;;;5013955;28;20348;-75
2024/01/17 04:26:38;;;;;;;10.13;4.57;;;;;;;;;;5031022;28;20511;-75
2024/01/17 04:29:03;;;;;;;11.13;3.53;;;;;;;;;;5027821;28;20042;-75
2024/01/17 04:31:30;;;;;;;9.70;3.92;;;;;;;;;;5012959;28;20044;-75
2024/01/17 04:33:56;;;;;;;11.90;4.22;;;;;;;;;;5031267;28;20033;-74
2024/01/17 04:36:24;;;;;;;6.63;3.67;;;;;;;;;;5031650;28;20138;-75
2024/01/17 04:38:49;;;;;;;11.90;4.05;;;;;;;;;;5029266;28;20033;-75
2024/01/17 04:41:16;;;;;;;8.88;4.10;;;;;;;;;;5032383;28;20037;-75
2024/01/17 04:43:42;;;;;;;8.00;4.40;;;;;;;;;;5020321;28;20065;-75
2024/01/17 04:46:09;;;;;;;9.70;3.67;;;;;;;;;;5019706;28;20041;-75
2024/01/17 04:48:35;;;;;;;11.43;4.43;;;;;;;;;;5014187;28;20466;-75
2024/01/17 04:51:02;;;;;;;8.68;3.38;;;;;;;;;;5011498;28;20033;-75
2024/01/17 04:53:27;;;;;;;11.82;4.40;;;;;;;;;;5051095;28;20029;-75
2024/01/17 04:55:53;;;;;;;9.13;4.53;;;;;;;;;;5031951;28;20442;-75
2024/01/17 04:58:18;;;;;;;8.60;4.53;;;;;;;;;;5050195;28;20049;-75
2024/01/17 05:00:46;;;;;;;10.20;4.28;;;;;;;;;;5031114;28;20037;-75
2024/01/17 05:03:12;;;;;;;12.00;4.35;;;;;;;;;;5050416;28;20044;-75
2024/01/17 05:05:37;;;;;;;10.88;4.55;;;;;;;;;;5034886;28;20026;-75
2024/01/17 05:08:03;;;;;;;9.18;4.53;;;;;;;;;;5010915;28;20071;-75
2024/01/17 05:10:29;;;;;;;9.98;4.53;;;;;;;;;;5010516;28;20042;-75
2024/01/17 05:12:54;;;;;;;10.20;3.97;;;;;;;;;;4992987;28;20053;-75
2024/01/17 05:15:19;;;;;;;8.68;3.63;;;;;;;;;;5010378;28;20033;-75
2024/01/17 05:17:45;;;;;;;7.68;3.78;;;;;;;;;;4993489;28;20152;-75
2024/01/17 05:20:11;;;;;;;17.30;3.83;;;;;;;;;;4992223;28;20124;-75
2024/01/17 05:22:39;;;;;;;14.50;3.83;;;;;;;;;;4992741;28;20045;-75
2024/01/17 05:25:06;;;;;;;10.55;4.53;;;;;;;;;;4993009;28;20033;-75
2024/01/17 05:27:32;;;;;;;10.60;4.88;;;;;;;;;;5010296;28;20034;-75
2024/01/17 05:29:58;;;;;;;10.52;4.95;;;;;;;;;;5010214;28;20024;-75
2024/01/17 05:32:23;;;;;;;12.40;4.32;;;;;;;;;;4993356;28;20034;-74
2024/01/17 05:34:50;;;;;;;5.55;3.28;;;;;;;;;;4992129;28;20848;-75
2024/01/17 05:37:16;;;;;;;12.10;4.60;;;;;;;;;;4996886;28;20042;-75
2024/01/17 05:39:41;;;;;;;6.80;3.85;;;;;;;;;;5012447;28;20115;-75
2024/01/17 05:42:07;;;;;;;9.55;4.07;;;;;;;;;;5030222;28;20034;-74
2024/01/17 05:44:32;;;;;;;7.20;3.65;;;;;;;;;;5029414;28;20056;-75
2024/01/17 05:46:57;;;;;;;10.13;4.55;;;;;;;;;;5029376;28;20034;-75
2024/01/17 05:49:23;;;;;;;9.38;4.28;;;;;;;;;;5029518;28;20037;-75
2024/01/17 05:51:49;;;;;;;7.90;3.72;;;;;;;;;;5029904;28;20045;-75
2024/01/17 05:54:15;;;;;;;9.07;4.32;;;;;;;;;;5029372;28;20139;-75
2024/01/17 05:56:40;;;;;;;9.23;3.63;;;;;;;;;;5012113;28;20100;-75
2024/01/17 05:59:06;;;;;;;10.27;4.10;;;;;;;;;;5012562;28;20041;-76
2024/01/17 06:01:31;;;;;;;4.30;2.85;;;;;;;;;;5031246;28;20037;-75
2024/01/17 06:03:56;;;;;;;8.25;4.07;;;;;;;;;;5039250;28;20132;-74
2024/01/17 06:06:22;;;;;;;17.75;4.93;;;;;;;;;;5020975;28;20029;-74
2024/01/17 06:08:47;;;;;;;10.75;3.50;;;;;;;;;;5007045;28;20030;-75
2024/01/17 06:11:12;;;;;;;11.35;3.72;;;;;;;;;;5010035;28;20499;-74
2024/01/17 06:13:38;;;;;;;13.20;3.70;;;;;;;;;;4991801;28;20096;-75
2024/01/17 06:16:03;;;;;;;9.75;4.00;;;;;;;;;;4991858;28;20038;-75
2024/01/17 06:18:29;;;;;;;8.35;3.97;;;;;;;;;;5009257;28;20168;-75
2024/01/17 06:20:54;;;;;;;9.88;4.03;;;;;;;;;;5009297;28;20022;-75
2024/01/17 06:23:19;;;;;;;11.32;4.40;;;;;;;;;;5009998;28;20050;-75
2024/01/17 06:25:45;;;;;;;14.90;5.53;;;;;;;;;;5009596;28;20042;-75
2024/01/17 06:28:10;;;;;;;9.82;4.20;;;;;;;;;;5009684;28;20782;-75
2024/01/17 06:30:36;;;;;;;9.93;4.55;;;;;;;;;;4990946;28;20092;-75
2024/01/17 06:33:02;;;;;;;10.88;4.72;;;;;;;;;;4991023;28;20100;-75
2024/01/17 06:35:27;;;;;;;9.70;4.18;;;;;;;;;;5009910;28;20040;-74
2024/01/17 06:37:53;;;;;;;13.82;5.22;;;;;;;;;;5009940;28;20116;-75
2024/01/17 06:40:18;;;;;;;13.25;4.55;;;;;;;;;;5011417;28;20071;-74
2024/01/17 06:42:43;;;;;;;9.60;3.97;;;;;;;;;;5011192;28;20048;-74
2024/01/17 06:45:10;;;;;;;9.85;3.80;;;;;;;;;;5004941;28;20041;-74
2024/01/17 06:47:36;;;;;;;9.38;4.00;;;;;;;;;;5035513;28;20067;-74
2024/01/17 06:50:01;;;;;;;9.82;3.70;;;;;;;;;;5023997;28;20058;-74
2024/01/17 06:52:27;;;;;;;13.25;4.68;;;;;;;;;;5043125;28;20041;-74
2024/01/17 06:54:53;;;;;;;13.23;4.68;;;;;;;;;;5026390;28;20096;-75
2024/01/17 06:57:19;;;;;;;8.35;4.13;;;;;;;;;;5005729;28;20040;-75
2024/01/17 06:59:44;;;;;;;13.93;4.18;;;;;;;;;;5006329;28;20033;-75
2024/01/17 07:02:10;;;;;;;26.95;9.15;;;;;;;;;;5018530;28;20123;-74
2024/01/17 07:04:35;;;;;;;28.77;11.00;;;;;;;;;;5014700;28;20404;-75
2024/01/17 07:07:01;;;;;;;12.10;5.68;;;;;;;;;;5010172;28;20029;-74
2024/01/17 07:09:26;;;;;;;18.88;7.45;;;;;;;;;;4999641;28;20522;-75
2024/01/17 07:11:51;;;;;;;19.45;8.32;;;;;;;;;;4991555;28;20461;-75
2024/01/17 07:14:17;;;;;;;15.52;5.88;;;;;;;;;;4992024;28;20132;-75
2024/01/17 07:16:42;;;;;;;13.57;5.45;;;;;;;;;;4990998;28;20038;-75
2024/01/17 07:19:08;;;;;;;18.13;6.55;;;;;;;;;;4991572;28;20046;-75
2024/01/17 07:21:36;;;;;;;13.38;5.45;;;;;;;;;;5007291;28;20133;-75
2024/01/17 07:24:02;;;;;;;12.00;4.63;;;;;;;;;;5009111;28;20085;-76
2024/01/17 07:26:27;;;;;;;13.35;5.47;;;;;;;;;;5000139;28;20026;-75
2024/01/17 07:28:53;;;;;;;14.73;6.25;;;;;;;;;;5026017;28;20125;-75
2024/01/17 07:31:18;;;;;;;17.83;7.57;;;;;;;;;;5025757;28;20045;-75
2024/01/17 07:33:43;;;;;;;14.85;7.13;;;;;;;;;;5029651;28;20537;-74
2024/01/17 07:36:09;;;;;;;13.98;6.00;;;;;;;;;;5029481;28;20047;-74
2024/01/17 07:38:34;;;;;;;9.32;5.03;;;;;;;;;;5040382;28;20025;-75
2024/01/17 07:41:00;;;;;;;17.90;5.32;;;;;;;;;;5029159;28;20018;-74
2024/01/17 07:43:26;;;;;;;14.85;5.28;;;;;;;;;;5045595;28;20499;-75
2024/01/17 07:45:52;;;;;;;15.27;5.40;;;;;;;;;;5029384;28;20044;-75
2024/01/17 07:48:18;;;;;;;16.25;6.85;;;;;;;;;;5030001;28;20041;-75
2024/01/17 07:50:43;;;;;;;14.05;5.95;;;;;;;;;;5029821;28;20073;-75
2024/01/17 07:53:11;;;;;;;14.68;6.53;;;;;;;;;;5027780;28;20037;-75
2024/01/17 07:55:36;;;;;;;9.68;3.95;;;;;;;;;;5013361;28;20037;-74
2024/01/17 07:58:01;;;;;;;11.23;4.90;;;;;;;;;;5012537;28;20653;-74
2024/01/17 08:00:28;;;;;;;9.38;4.40;;;;;;;;;;5011708;28;20072;-75
2024/01/17 08:02:54;;;;;;;11.40;4.75;;;;;;;;;;5011640;28;20053;-74
2024/01/17 08:05:19;;;;;;;7.40;3.47;;;;;;;;;;5029490;28;20057;-74
2024/01/17 08:07:44;;;;;;;14.05;5.25;;;;;;;;;;5029062;28;20038;-74
2024/01/17 08:10:10;;;;;;;10.05;4.50;;;;;;;;;;5029289;28;20099;-75
2024/01/17 08:12:35;;;;;;;11.32;4.93;;;;;;;;;;5031517;28;20033;-74
2024/01/17 08:15:01;;;;;;;11.35;5.25;;;;;;;;;;5030400;28;20029;-75
2024/01/17 08:17:26;;;;;;;11.25;4.55;;;;;;;;;;5029875;28;20115;-75
2024/01/17 08:19:51;;;;;;;8.80;4.53;;;;;;;;;;5030544;28;20070;-75
2024/01/17 08:22:17;;;;;;;16.10;4.82;;;;;;;;;;5047475;28;20037;-74
2024/01/17 08:24:42;;;;;;;9.98;4.85;;;;;;;;;;5048306;28;20036;-75
2024/01/17 08:27:08;;;;;;;12.57;4.85;;;;;;;;;;5048097;28;20111;-75
2024/01/17 08:29:34;;;;;;;13.50;4.93;;;;;;;;;;5029004;28;20069;-75
2024/01/17 08:31:59;;;;;;;12.85;5.03;;;;;;;;;;5003029;28;20662;-75
2024/01/17 08:34:25;;;;;;;15.02;5.82;;;;;;;;;;5008482;28;20042;-75
2024/01/17 08:36:50;;;;;;;16.58;5.85;;;;;;;;;;4992109;28;20133;-74
2024/01/17 08:39:16;;;;;;;18.52;6.93;;;;;;;;;;5010531;28;20045;-74
2024/01/17 08:41:45;;;;;;;23.27;7.55;;;;;;;;;;5026149;28;20029;-74
2024/01/17 08:44:12;;;;;;;10.77;5.57;;;;;;;;;;5008307;28;20438;-74
2024/01/17 08:46:48;;;;;;;15.05;6.40;;;;;;;;;;5012774;28;20046;-74
2024/01/17 08:49:14;;;;;;;21.52;6.75;;;;;;;;;;5011722;28;20128;-74
2024/01/17 08:51:39;;;;;;;21.27;7.63;;;;;;;;;;5001338;28;20113;-75
2024/01/17 08:54:05;;;;;;;19.38;6.28;;;;;;;;;;5012523;28;20121;-74
2024/01/17 08:56:31;;;;;;;18.70;7.85;;;;;;;;;;5016756;28;20038;-74
2024/01/17 08:58:56;;;;;;;13.95;5.95;;;;;;;;;;5008758;28;20034;-74
2024/01/17 09:01:22;;;;;;;17.45;7.07;;;;;;;;;;4991971;28;20041;-74
2024/01/17 09:03:47;;;;;;;17.55;6.30;;;;;;;;;;5001480;28;20040;-74
2024/01/17 09:06:12;;;;;;;14.98;5.22;;;;;;;;;;5027251;28;20745;-74
2024/01/17 09:08:38;;;;;;;17.02;6.50;;;;;;;;;;5012278;28;20029;-75
2024/01/17 09:11:05;;;;;;;15.40;6.45;;;;;;;;;;5035485;28;20049;-74
2024/01/17 09:13:31;;;;;;;14.88;5.50;;;;;;;;;;5005328;28;20738;-74
2024/01/17 09:15:57;;;;;;;21.48;7.65;;;;;;;;;;5012527;28;20042;-74
2024/01/17 09:18:22;;;;;;;17.45;6.10;;;;;;;;;;5024090;28;20053;-75
2024/01/17 09:20:48;;;;;;;18.45;7.32;;;;;;;;;;5027375;28;20048;-74
2024/01/17 09:23:13;;;;;;;18.02;7.60;;;;;;;;;;5028083;28;20515;-73
2024/01/17 09:25:39;;;;;;;17.38;7.07;;;;;;;;;;5027421;28;20045;-74
2024/01/17 09:28:04;;;;;;;15.25;6.82;;;;;;;;;;5009290;28;20090;-73
2024/01/17 09:30:30;;;;;;;14.32;6.80;;;;;;;;;;5027530;28;20109;-74
2024/01/17 09:32:55;;;;;;;20.58;6.95;;;;;;;;;;5026708;28;20031;-74
2024/01/17 09:35:21;;;;;;;17.38;7.15;;;;;;;;;;5028486;28;20033;-75
2024/01/17 09:37:46;;;;;;;17.33;7.32;;;;;;;;;;5015645;28;20140;-75
2024/01/17 09:40:13;;;;;;;13.75;6.55;;;;;;;;;;4991151;28;20030;-76
2024/01/17 09:42:38;;;;;;;16.88;6.80;;;;;;;;;;5037394;28;20073;-75
2024/01/17 09:45:06;;;;;;;15.48;6.95;;;;;;;;;;5031071;28;20037;-74
2024/01/17 09:47:33;;;;;;;20.70;7.13;;;;;;;;;;5027333;28;20021;-73
2024/01/17 09:49:59;;;;;;;19.02;7.55;;;;;;;;;;5034169;28;20048;-73
2024/01/17 09:52:24;;;;;;;14.45;6.75;;;;;;;;;;5025090;28;20049;-73
2024/01/17 09:54:52;;;;;;;15.52;6.38;;;;;;;;;;5041759;28;20085;-74
2024/01/17 09:57:26;;;;;;;16.77;6.95;;;;;;;;;;5037360;28;20466;-74
2024/01/17 09:59:59;;;;;;;15.18;5.47;;;;;;;;;;5010461;28;20554;-74
2024/01/17 10:02:27;;;;;;;20.38;7.88;;;;;;;;;;5010120;28;20810;-74
2024/01/17 10:04:55;;;;;;;19.27;8.18;;;;;;;;;;5008349;28;20816;-74
2024/01/17 10:07:20;;;;;;;17.85;7.35;;;;;;;;;;5026255;28;20462;-74
2024/01/17 10:09:46;;;;;;;17.52;7.65;;;;;;;;;;5025458;28;20033;-74
2024/01/17 10:12:13;;;;;;;22.95;8.68;;;;;;;;;;5020518;28;20037;-73
2024/01/17 10:14:40;;;;;;;22.80;9.02;;;;;;;;;;5007506;28;20069;-75
2024/01/17 10:17:06;;;;;;;21.33;9.30;;;;;;;;;;5006655;28;20034;-73
2024/01/17 10:19:32;;;;;;;23.67;9.52;;;;;;;;;;4987230;28;20124;-73
2024/01/17 10:22:02;;;;;;;17.83;7.07;;;;;;;;;;4992708;28;20133;-74
2024/01/17 10:24:30;;;;;;;21.65;6.75;;;;;;;;;;5007595;28;20104;-74
2024/01/17 10:26:55;;;;;;;17.83;7.20;;;;;;;;;;5024821;28;20032;-73
2024/01/17 10:29:21;;;;;;;25.58;8.38;;;;;;;;;;5025684;28;20053;-74
2024/01/17 10:31:46;;;;;;;26.38;8.55;;;;;;;;;;5012974;28;20507;-74
2024/01/17 10:34:12;;;;;;;26.20;9.00;;;;;;;;;;4987721;28;20041;-74
2024/01/17 10:36:44;;;;;;;19.73;7.10;;;;;;;;;;5013340;28;20041;-74
2024/01/17 10:39:11;;;;;;;26.50;9.10;;;;;;;;;;4999518;28;20039;-74
2024/01/17 10:41:49;;;;;;;24.10;8.82;;;;;;;;;;5001325;28;20080;-74
2024/01/17 10:44:17;;;;;;;25.33;8.80;;;;;;;;;;4996867;28;20407;-74
2024/01/17 10:46:42;;;;;;;19.55;7.93;;;;;;;;;;4997126;28;20037;-74
2024/01/17 10:49:08;;;;;;;20.73;9.15;;;;;;;;;;5015258;28;20053;-74
2024/01/17 10:51:35;;;;;;;20.95;8.70;;;;;;;;;;5017947;28;20184;-74
2024/01/17 10:54:03;;;;;;;21.45;8.10;;;;;;;;;;5017371;28;20093;-73
2024/01/17 10:56:30;;;;;;;22.60;8.73;;;;;;;;;;5038642;28;20037;-74
2024/01/17 10:58:56;;;;;;;17.73;8.75;;;;;;;;;;5013731;28;20049;-74
2024/01/17 11:01:35;;;;;;;26.55;8.52;;;;;;;;;;5019436;28;20045;-74
2024/01/17 11:04:16;;;;;;;20.70;8.50;;;;;;;;;;4942164;28;2090774;-74
2024/01/17 11:06:43;;;;;;;26.63;8.30;;;;;;;;;;5015957;28;20102;-73
2024/01/17 11:09:10;;;;;;;21.27;8.38;;;;;;;;;;4998893;28;20094;-75
2024/01/17 11:11:38;;;;;;;28.58;11.45;;;;;;;;;;5003961;28;20033;-74
2024/01/17 11:14:05;;;;;;;31.67;11.50;;;;;;;;;;5003317;28;21722;-73
2024/01/17 11:16:33;;;;;;;41.55;14.60;;;;;;;;;;4992241;28;20041;-73
2024/01/17 11:19:00;;;;;;;28.40;10.85;;;;;;;;;;5009915;28;20061;-74
2024/01/17 11:21:26;;;;;;;36.00;11.15;;;;;;;;;;4998916;28;20045;-74
2024/01/17 11:24:06;;;;;;;30.90;11.73;;;;;;;;;;5017658;28;20022;-74
2024/01/17 11:26:37;;;;;;;23.90;10.55;;;;;;;;;;4995842;28;20098;-74
2024/01/17 11:29:06;;;;;;;28.75;11.00;;;;;;;;;;5010089;28;20806;-75
2024/01/17 11:31:31;;;;;;;34.92;14.18;;;;;;;;;;4996275;28;20041;-74
2024/01/17 11:33:58;;;;;;;26.30;11.55;;;;;;;;;;5013009;28;20049;-73
2024/01/17 11:36:43;;;;;;;30.13;12.52;;;;;;;;;;4998150;28;20041;-75
2024/01/17 11:39:11;;;;;;;26.08;10.35;;;;;;;;;;4995591;28;20201;-74
2024/01/17 11:41:38;;;;;;;21.42;9.35;;;;;;;;;;5014342;28;20032;-74
2024/01/17 11:44:06;;;;;;;22.35;9.48;;;;;;;;;;5016152;28;20041;-74
2024/01/17 11:46:31;;;;;;;16.05;6.53;;;;;;;;;;4994370;28;20241;-74
2024/01/17 11:48:57;;;;;;;30.95;12.25;;;;;;;;;;5016022;28;20515;-74
2024/01/17 11:51:25;;;;;;;21.33;9.27;;;;;;;;;;5008135;28;20133;-74
2024/01/17 11:53:53;;;;;;;25.00;10.20;;;;;;;;;;5011559;28;20037;-74
2024/01/17 11:56:24;;;;;;;29.13;10.82;;;;;;;;;;5014316;28;20492;-74
2024/01/17 11:58:53;;;;;;;21.10;9.32;;;;;;;;;;5019097;28;20045;-74
2024/01/17 12:01:21;;;;;;;22.35;7.45;;;;;;;;;;4992632;28;20036;-75
2024/01/17 12:03:47;;;;;;;13.63;6.15;;;;;;;;;;5016245;28;20045;-74
2024/01/17 12:06:14;;;;;;;18.38;7.55;;;;;;;;;;5013939;28;20108;-74
2024/01/17 12:08:41;;;;;;;19.10;8.70;;;;;;;;;;5013447;28;20039;-77
2024/01/17 12:11:07;;;;;;;23.10;8.63;;;;;;;;;;5016821;28;20033;-73
2024/01/17 12:13:36;;;;;;;19.45;9.05;;;;;;;;;;5018580;28;20041;-73
2024/01/17 12:16:02;;;;;;;20.50;9.43;;;;;;;;;;5004098;28;20069;-73
2024/01/17 12:18:28;;;;;;;23.60;9.27;;;;;;;;;;5020554;28;20774;-73
2024/01/17 12:20:54;;;;;;;20.15;9.10;;;;;;;;;;5015058;28;20036;-73
2024/01/17 12:23:27;;;;;;;13.80;6.18;;;;;;;;;;5038035;28;20025;-73
2024/01/17 12:25:53;;;;;;;26.63;8.90;;;;;;;;;;5037410;28;20099;-73
2024/01/17 12:28:27;;;;;;;15.98;7.30;;;;;;;;;;5031586;28;20034;-72
2024/01/17 12:31:04;;;;;;;16.98;7.70;;;;;;;;;;5039390;28;20053;-73
2024/01/17 12:33:38;;;;;;;26.17;10.65;;;;;;;;;;5041520;28;20037;-72
2024/01/17 12:36:05;;;;;;;18.08;7.80;;;;;;;;;;5035414;28;20113;-74
2024/01/17 12:38:35;;;;;;;22.55;8.68;;;;;;;;;;5008289;28;20060;-73
2024/01/17 12:41:03;;;;;;;25.40;11.27;;;;;;;;;;5011404;28;20152;-73
2024/01/17 12:43:29;;;;;;;19.98;8.75;;;;;;;;;;4991159;28;20041;-73
2024/01/17 12:45:56;;;;;;;22.20;9.57;;;;;;;;;;5008714;28;20601;-74
2024/01/17 12:48:22;;;;;;;19.77;9.18;;;;;;;;;;5026553;28;20069;-73
2024/01/17 12:50:54;;;;;;;21.45;8.90;;;;;;;;;;5020131;28;20030;-73
2024/01/17 12:53:23;;;;;;;20.52;8.50;;;;;;;;;;5016244;28;20104;-73
2024/01/17 12:55:50;;;;;;;16.30;7.95;;;;;;;;;;5017206;28;20136;-74
2024/01/17 12:58:16;;;;;;;22.02;8.93;;;;;;;;;;5028108;28;20099;-73
2024/01/17 13:00:42;;;;;;;24.90;9.63;;;;;;;;;;5027888;28;20041;-74
2024/01/17 13:03:09;;;;;;;26.80;9.85;;;;;;;;;;5043703;28;20049;-73
2024/01/17 13:05:36;;;;;;;20.67;9.38;;;;;;;;;;5003390;28;20925;-72
2024/01/17 13:08:15;;;;;;;29.15;11.20;;;;;;;;;;5005554;28;20294;-73
2024/01/17 13:10:41;;;;;;;20.95;7.55;;;;;;;;;;5025647;28;20063;-73
2024/01/17 13:13:09;;;;;;;25.35;10.05;;;;;;;;;;5008194;28;20059;-71
2024/01/17 13:15:41;;;;;;;15.63;7.32;;;;;;;;;;5028356;28;20041;-71
2024/01/17 13:18:10;;;;;;;22.33;9.13;;;;;;;;;;5032227;28;20153;-74
2024/01/17 13:20:39;;;;;;;16.30;7.05;;;;;;;;;;5005491;28;20106;-73
2024/01/17 13:23:05;;;;;;;25.05;8.40;;;;;;;;;;5022379;28;20030;-72
2024/01/17 13:25:31;;;;;;;20.92;9.27;;;;;;;;;;5023130;28;20805;-72
2024/01/17 13:28:01;;;;;;;20.98;8.50;;;;;;;;;;5022796;28;20030;-72
2024/01/17 13:30:28;;;;;;;15.27;7.18;;;;;;;;;;5022781;28;20034;-72
2024/01/17 13:32:55;;;;;;;25.55;10.20;;;;;;;;;;5001091;28;20033;-72
2024/01/17 13:35:21;;;;;;;18.13;7.70;;;;;;;;;;5023736;28;20465;-72
2024/01/17 13:37:46;;;;;;;26.88;11.75;;;;;;;;;;5010339;28;20598;-70
2024/01/17 13:40:12;;;;;;;23.60;11.18;;;;;;;;;;5008081;28;20128;-71
2024/01/17 13:42:38;;;;;;;16.60;7.35;;;;;;;;;;4991786;28;20048;-71
2024/01/17 13:45:10;;;;;;;22.45;9.75;;;;;;;;;;5017189;28;20639;-71
2024/01/17 13:47:41;;;;;;;21.70;10.02;;;;;;;;;;5010596;28;20117;-71
2024/01/17 13:50:20;;;;;;;39.63;15.35;;;;;;;;;;5001267;28;20034;-71
2024/01/17 13:52:50;;;;;;;37.53;15.23;;;;;;;;;;5018119;28;20042;-71
2024/01/17 13:55:17;;;;;;;37.88;16.92;;;;;;;;;;5022048;28;20513;-72
2024/01/17 13:57:43;;;;;;;24.75;11.02;;;;;;;;;;5022833;28;20029;-69
2024/01/17 14:00:10;;;;;;;23.10;10.50;;;;;;;;;;5021614;28;20026;-69
2024/01/17 14:02:35;;;;;;;21.33;9.15;;;;;;;;;;5023978;28;20108;-70
2024/01/17 14:05:01;;;;;;;28.48;12.68;;;;;;;;;;5019835;28;20045;-71
2024/01/17 14:07:27;;;;;;;23.85;9.50;;;;;;;;;;5005525;28;20521;-70
2024/01/17 14:09:52;;;;;;;18.67;8.50;;;;;;;;;;5023313;28;20091;-70
2024/01/17 14:12:18;;;;;;;25.92;10.20;;;;;;;;;;5002799;28;20070;-71
2024/01/17 14:14:43;;;;;;;25.55;10.98;;;;;;;;;;5006964;28;20029;-71
2024/01/17 14:17:09;;;;;;;23.08;9.43;;;;;;;;;;5000308;28;20033;-70
2024/01/17 14:19:35;;;;;;;28.08;11.73;;;;;;;;;;5004933;28;20033;-69
2024/01/17 14:22:01;;;;;;;24.48;11.43;;;;;;;;;;5004012;28;20041;-70
2024/01/17 14:24:27;;;;;;;21.10;10.18;;;;;;;;;;5021224;28;20041;-70
2024/01/17 14:26:52;;;;;;;21.90;10.05;;;;;;;;;;5023717;28;20565;-70